createdAt,value
2023-03-01T00:01:50.742Z,98328.59
2023-03-01T00:04:19.261Z,98335.63
2023-03-01T00:06:48.401Z,98324.41
2023-03-01T00:09:16.850Z,98319.97
2023-03-01T00:11:45.738Z,98319.22
2023-03-01T00:14:14.713Z,98313.03
2023-03-01T00:16:45.079Z,98311.34
2023-03-01T00:19:21.038Z,98314.91
2023-03-01T00:21:49.449Z,98310.69
2023-03-01T00:24:18.131Z,98314.19
2023-03-01T00:26:47.543Z,98310.88
2023-03-01T00:29:15.943Z,98311.00
2023-03-01T00:31:44.200Z,98311.09
2023-03-01T00:34:13.900Z,98298.44
2023-03-01T00:36:42.109Z,98302.03
2023-03-01T00:39:14.491Z,98303.97
2023-03-01T00:41:43.148Z,98303.25
2023-03-01T00:44:12.028Z,98301.72
2023-03-01T00:46:40.661Z,98301.94
2023-03-01T00:49:09.027Z,98310.88
2023-03-01T00:51:40.362Z,98303.28
2023-03-01T00:54:10.172Z,98304.31
2023-03-01T00:56:38.426Z,98306.28
2023-03-01T00:59:06.640Z,98305.63
2023-03-01T01:01:34.907Z,98306.59
2023-03-01T01:04:05.993Z,98299.84
2023-03-01T01:06:39.181Z,98287.75
2023-03-01T01:09:09.207Z,98289.72
2023-03-01T01:11:38.392Z,98282.88
2023-03-01T01:14:06.706Z,98276.03
2023-03-01T01:16:35.006Z,98282.31
2023-03-01T01:19:03.519Z,98279.03
2023-03-01T01:21:32.281Z,98279.22
2023-03-01T01:24:02.088Z,98277.75
2023-03-01T01:26:34.107Z,98275.31
2023-03-01T01:29:04.464Z,98272.13
2023-03-01T01:31:34.023Z,98269.78
2023-03-01T01:34:04.028Z,98271.78
2023-03-01T01:36:33.109Z,98266.81
2023-03-01T01:39:03.366Z,98266.13
2023-03-01T01:41:32.423Z,98258.47
2023-03-01T01:44:19.869Z,98259.59
2023-03-01T01:46:53.016Z,98260.72
2023-03-01T01:49:34.226Z,98263.72
2023-03-01T01:52:12.534Z,98250.78
2023-03-01T01:54:52.955Z,98250.22
2023-03-01T01:57:24.806Z,98250.41
2023-03-01T01:59:56.918Z,98254.16
2023-03-01T02:02:25.809Z,98248.16
2023-03-01T02:05:04.902Z,98249.38
2023-03-01T02:07:33.492Z,98248.72
2023-03-01T02:10:04.480Z,98250.63
2023-03-01T02:12:33.374Z,98239.44
2023-03-01T02:15:01.723Z,98241.31
2023-03-01T02:17:30.309Z,98239.72
2023-03-01T02:20:14.599Z,98245.16
2023-03-01T02:22:45.933Z,98240.88
2023-03-01T02:25:27.895Z,98234.94
2023-03-01T02:28:08.771Z,98235.97
2023-03-01T02:30:58.664Z,98239.69
2023-03-01T02:33:27.324Z,98239.88
2023-03-01T02:35:57.345Z,98244.41
2023-03-01T02:38:26.336Z,98241.88
2023-03-01T02:40:55.926Z,98238.38
2023-03-01T02:43:30.055Z,98234.91
2023-03-01T02:46:01.946Z,98233.31
2023-03-01T02:48:30.188Z,98230.88
2023-03-01T02:51:09.663Z,98231.94
2023-03-01T02:53:44.342Z,98226.00
2023-03-01T02:56:13.971Z,98225.38
2023-03-01T02:58:46.651Z,98223.75
2023-03-01T03:01:17.111Z,98222.25
2023-03-01T03:03:45.968Z,98220.56
2023-03-01T03:06:15.490Z,98218.13
2023-03-01T03:08:45.020Z,98225.22
2023-03-01T03:11:13.339Z,98223.75
2023-03-01T03:13:49.025Z,98231.78
2023-03-01T03:16:19.069Z,98222.38
2023-03-01T03:18:47.459Z,98219.94
2023-03-01T03:21:17.276Z,98221.91
2023-03-01T03:23:45.853Z,98224.63
2023-03-01T03:26:16.126Z,98223.88
2023-03-01T03:28:44.416Z,98217.94
2023-03-01T03:31:12.725Z,98217.22
2023-03-01T03:33:42.369Z,98218.22
2023-03-01T03:36:13.851Z,98213.91
2023-03-01T03:38:42.276Z,98211.47
2023-03-01T03:41:10.988Z,98210.53
2023-03-01T03:43:41.586Z,98208.03
2023-03-01T03:46:10.532Z,98208.03
2023-03-01T03:48:42.866Z,98209.03
2023-03-01T03:51:13.248Z,98202.97
2023-03-01T03:53:41.833Z,98197.91
2023-03-01T03:56:11.034Z,98198.81
2023-03-01T03:58:39.578Z,98193.66
2023-03-01T04:01:09.071Z,98195.53
2023-03-01T04:03:37.473Z,98191.38
2023-03-01T04:06:07.922Z,98191.47
2023-03-01T04:08:36.289Z,98190.75
2023-03-01T04:11:20.429Z,98182.28
2023-03-01T04:13:48.764Z,98197.91
2023-03-01T04:16:17.154Z,98189.28
2023-03-01T04:18:45.456Z,98190.19
2023-03-01T04:21:15.748Z,98192.91
2023-03-01T04:23:44.224Z,98192.22
2023-03-01T04:26:12.541Z,98178.41
2023-03-01T04:28:46.841Z,98182.88
2023-03-01T04:31:18.555Z,98180.41
2023-03-01T04:33:50.011Z,98184.16
2023-03-01T04:36:21.440Z,98180.78
2023-03-01T04:38:49.902Z,98175.72
2023-03-01T04:41:20.844Z,98179.25
2023-03-01T04:43:50.315Z,98184.59
2023-03-01T04:46:22.569Z,98177.66
2023-03-01T04:48:51.291Z,98183.91
2023-03-01T04:51:20.941Z,98181.38
2023-03-01T04:53:49.758Z,98177.06
2023-03-01T04:56:18.998Z,98185.88
2023-03-01T04:58:48.316Z,98194.63
2023-03-01T05:01:19.867Z,98191.28
2023-03-01T05:03:49.891Z,98196.59
2023-03-01T05:06:21.742Z,98181.78
2023-03-01T05:08:50.077Z,98177.50
2023-03-01T05:11:18.354Z,98182.75
2023-03-01T05:13:46.640Z,98175.81
2023-03-01T05:16:15.796Z,98179.34
2023-03-01T05:18:44.361Z,98174.13
2023-03-01T05:21:17.127Z,98173.38
2023-03-01T05:23:47.889Z,98168.22
2023-03-01T05:26:33.564Z,98163.09
2023-03-01T05:29:02.125Z,98163.41
2023-03-01T05:31:31.764Z,98179.84
2023-03-01T05:34:00.243Z,98172.09
2023-03-01T05:36:28.682Z,98182.66
2023-03-01T05:38:58.533Z,98182.72
2023-03-01T05:41:26.764Z,98180.19
2023-03-01T05:43:55.372Z,98182.06
2023-03-01T05:46:25.446Z,98178.84
2023-03-01T05:48:53.818Z,98177.09
2023-03-01T05:51:23.233Z,98176.31
2023-03-01T05:53:51.510Z,98178.16
2023-03-01T05:56:23.301Z,98179.28
2023-03-01T05:58:51.644Z,98177.59
2023-03-01T06:01:19.947Z,98176.75
2023-03-01T06:03:48.349Z,98176.00
2023-03-01T06:06:16.552Z,98180.38
2023-03-01T06:08:44.820Z,98178.69
2023-03-01T06:11:13.062Z,98173.63
2023-03-01T06:13:43.970Z,98182.38
2023-03-01T06:16:13.116Z,98184.19
2023-03-01T06:18:42.501Z,98177.22
2023-03-01T06:21:11.470Z,98176.41
2023-03-01T06:23:39.780Z,98184.34
2023-03-01T06:26:09.186Z,98179.19
2023-03-01T06:31:13.380Z,98183.56
2023-03-01T06:33:41.667Z,98190.63
2023-03-01T06:36:11.568Z,98193.25
2023-03-01T06:38:41.653Z,98184.59
2023-03-01T06:41:10.019Z,98183.66
2023-03-01T06:43:38.297Z,98185.41
2023-03-01T06:46:07.730Z,98188.88
2023-03-01T06:48:37.462Z,98182.72
2023-03-01T06:51:06.380Z,98182.53
2023-03-01T06:53:34.648Z,98186.78
2023-03-01T06:56:02.897Z,98183.06
2023-03-01T06:58:31.226Z,98178.69
2023-03-01T07:00:59.487Z,98179.53
2023-03-01T07:03:27.976Z,98174.13
2023-03-01T07:05:57.569Z,98164.34
2023-03-01T07:08:25.831Z,98174.72
2023-03-01T07:10:58.138Z,98181.47
2023-03-01T07:13:26.623Z,98176.06
2023-03-01T07:15:54.917Z,98172.25
2023-03-01T07:18:23.244Z,98176.50
2023-03-01T07:20:51.610Z,98168.22
2023-03-01T07:23:21.305Z,98173.03
2023-03-01T07:25:55.123Z,98172.59
2023-03-01T07:28:24.632Z,98170.38
2023-03-01T07:30:52.927Z,98168.19
2023-03-01T07:33:21.522Z,98170.06
2023-03-01T07:35:49.853Z,98163.06
2023-03-01T07:38:18.130Z,98164.72
2023-03-01T07:40:47.972Z,98165.50
2023-03-01T07:43:16.255Z,98157.47
2023-03-01T07:45:44.737Z,98157.19
2023-03-01T07:48:13.113Z,98155.41
2023-03-01T07:50:41.468Z,98158.69
2023-03-01T07:53:10.270Z,98155.00
2023-03-01T07:55:38.719Z,98150.28
2023-03-01T07:58:08.423Z,98146.34
2023-03-01T08:00:36.825Z,98145.91
2023-03-01T08:03:05.259Z,98144.50
2023-03-01T08:05:34.377Z,98151.69
2023-03-01T08:08:02.704Z,98144.09
2023-03-01T08:10:31.045Z,98140.94
2023-03-01T08:12:59.317Z,98132.63
2023-03-01T08:15:29.020Z,98132.47
2023-03-01T08:17:57.300Z,98124.47
2023-03-01T08:20:25.609Z,98117.13
2023-03-01T08:22:53.909Z,98116.31
2023-03-01T08:25:22.213Z,98115.19
2023-03-01T08:27:50.540Z,98112.06
2023-03-01T08:30:19.688Z,98115.00
2023-03-01T08:32:49.399Z,98115.31
2023-03-01T08:35:17.952Z,98107.81
2023-03-01T08:37:46.444Z,98099.56
2023-03-01T08:40:15.947Z,98103.31
2023-03-01T08:42:44.806Z,98105.56
2023-03-01T08:45:15.252Z,98097.16
2023-03-01T08:47:43.664Z,98093.19
2023-03-01T08:50:14.055Z,98084.03
2023-03-01T08:52:42.448Z,98089.03
2023-03-01T08:55:11.662Z,98076.97
2023-03-01T08:57:40.045Z,98082.81
2023-03-01T09:00:10.658Z,98077.09
2023-03-01T09:02:39.763Z,98086.13
2023-03-01T09:05:08.995Z,98074.53
2023-03-01T09:07:38.803Z,98073.50
2023-03-01T09:10:08.587Z,98068.44
2023-03-01T09:12:37.052Z,98068.31
2023-03-01T09:15:06.409Z,98073.16
2023-03-01T09:17:34.856Z,98060.75
2023-03-01T09:20:06.660Z,98065.25
2023-03-01T09:22:36.110Z,98055.78
2023-03-01T09:25:06.929Z,98060.22
2023-03-01T09:27:35.329Z,98052.81
2023-03-01T09:30:03.814Z,98045.84
2023-03-01T09:32:33.021Z,98041.28
2023-03-01T09:35:05.894Z,98046.97
2023-03-01T09:37:35.006Z,98046.34
2023-03-01T09:40:06.345Z,98037.13
2023-03-01T09:42:37.606Z,98031.44
2023-03-01T09:45:09.379Z,98023.47
2023-03-01T09:47:38.982Z,98030.06
2023-03-01T09:50:15.728Z,98023.09
2023-03-01T09:52:48.122Z,98026.06
2023-03-01T09:55:32.346Z,98028.56
2023-03-01T09:58:13.091Z,98026.91
2023-03-01T10:00:45.904Z,98018.09
2023-03-01T10:03:20.178Z,98019.94
2023-03-01T10:06:00.157Z,98014.47
2023-03-01T10:08:42.763Z,98008.19
2023-03-01T10:11:25.244Z,98005.09
2023-03-01T10:14:01.159Z,97994.31
2023-03-01T10:16:40.069Z,97997.25
2023-03-01T10:19:13.320Z,97989.50
2023-03-01T10:21:47.317Z,97987.78
2023-03-01T10:24:19.984Z,97990.44
2023-03-01T10:26:57.612Z,97982.16
2023-03-01T10:29:33.793Z,97975.13
2023-03-01T10:32:02.341Z,97986.00
2023-03-01T10:34:34.305Z,97973.66
2023-03-01T10:37:13.804Z,97967.91
2023-03-01T10:40:06.784Z,97969.81
2023-03-01T10:42:41.165Z,97963.75
2023-03-01T10:45:32.774Z,97958.94
2023-03-01T10:48:17.001Z,97960.03
2023-03-01T10:50:47.508Z,97942.19
2023-03-01T10:53:30.157Z,97934.22
2023-03-01T10:56:05.465Z,97945.31
2023-03-01T10:58:36.974Z,97939.25
2023-03-01T11:01:08.009Z,97939.03
2023-03-01T11:03:39.371Z,97941.88
2023-03-01T11:06:23.397Z,97927.81
2023-03-01T11:08:53.024Z,97918.63
2023-03-01T11:11:33.501Z,97916.59
2023-03-01T11:14:25.027Z,97907.00
2023-03-01T11:17:02.393Z,97896.50
2023-03-01T11:19:30.752Z,97887.25
2023-03-01T11:22:05.677Z,97881.84
2023-03-01T11:24:43.594Z,97877.69
2023-03-01T11:27:23.825Z,97873.19
2023-03-01T11:29:58.346Z,97866.56
2023-03-01T11:32:32.208Z,97860.63
2023-03-01T11:35:04.886Z,97863.94
2023-03-01T11:37:40.586Z,97863.47
2023-03-01T11:40:17.817Z,97855.72
2023-03-01T11:43:01.407Z,97851.28
2023-03-01T11:45:44.951Z,97842.50
2023-03-01T11:48:49.303Z,97835.53
2023-03-01T11:51:27.208Z,97832.59
2023-03-01T11:54:16.737Z,97829.31
2023-03-01T11:56:52.629Z,97822.16
2023-03-01T11:59:58.331Z,97811.19
2023-03-01T12:03:03.276Z,97826.38
2023-03-01T12:06:16.625Z,97804.78
2023-03-01T12:08:49.599Z,97803.53
2023-03-01T12:11:35.023Z,97802.88
2023-03-01T12:14:34.583Z,97803.38
2023-03-01T12:17:22.949Z,97795.53
2023-03-01T12:20:24.248Z,97797.22
2023-03-01T12:23:41.939Z,97790.25
2023-03-01T12:26:16.357Z,97793.72
2023-03-01T12:29:01.306Z,97785.41
2023-03-01T12:31:48.991Z,97783.13
2023-03-01T12:34:54.902Z,97774.13
2023-03-01T12:37:33.630Z,97775.34
2023-03-01T12:40:25.650Z,97767.53
2023-03-01T12:43:06.796Z,97771.88
2023-03-01T12:45:51.092Z,97765.84
2023-03-01T12:48:43.245Z,97762.19
2023-03-01T12:51:17.338Z,97754.22
2023-03-01T12:53:50.950Z,97746.56
2023-03-01T12:56:24.770Z,97749.34
2023-03-01T12:59:02.621Z,97751.34
2023-03-01T13:01:43.158Z,97747.69
2023-03-01T13:04:39.664Z,97749.03
2023-03-01T13:07:25.752Z,97736.66
2023-03-01T13:10:08.889Z,97743.81
2023-03-01T13:12:55.552Z,97747.00
2023-03-01T13:15:38.363Z,97743.69
2023-03-01T13:18:30.840Z,97744.81
2023-03-01T13:21:02.240Z,97743.16
2023-03-01T13:23:35.276Z,97738.13
2023-03-01T13:26:12.295Z,97735.97
2023-03-01T13:29:03.046Z,97732.63
2023-03-01T13:32:02.689Z,97735.16
2023-03-01T13:34:56.686Z,97735.00
2023-03-01T13:37:38.434Z,97742.50
2023-03-01T13:40:59.780Z,97731.31
2023-03-01T13:43:35.278Z,97728.97
2023-03-01T13:46:10.686Z,97729.94
2023-03-01T13:48:40.158Z,97724.41
2023-03-01T13:51:12.546Z,97730.56
2023-03-01T13:53:44.932Z,97724.34
2023-03-01T13:56:17.326Z,97718.97
2023-03-01T13:58:56.735Z,97720.28
2023-03-01T14:01:31.826Z,97718.16
2023-03-01T14:04:01.067Z,97708.84
2023-03-01T14:06:32.244Z,97714.19
2023-03-01T14:09:12.241Z,97712.72
2023-03-01T14:12:17.508Z,97708.53
2023-03-01T14:14:59.165Z,97709.22
2023-03-01T14:18:01.721Z,97704.22
2023-03-01T14:20:32.673Z,97703.41
2023-03-01T14:23:04.852Z,97697.09
2023-03-01T14:25:36.398Z,97700.13
2023-03-01T14:28:14.136Z,97697.81
2023-03-01T14:30:46.182Z,97706.84
2023-03-01T14:33:25.402Z,97700.00
2023-03-01T14:35:59.585Z,97709.47
2023-03-01T14:38:35.821Z,97698.19
2023-03-01T14:41:10.240Z,97697.38
2023-03-01T14:43:40.093Z,97699.06
2023-03-01T14:46:21.904Z,97691.72
2023-03-01T14:48:52.984Z,97684.41
2023-03-01T14:51:21.276Z,97675.91
2023-03-01T14:53:51.429Z,97677.06
2023-03-01T14:56:20.473Z,97670.94
2023-03-01T14:58:53.717Z,97673.09
2023-03-01T15:01:24.234Z,97665.94
2023-03-01T15:03:54.065Z,97660.75
2023-03-01T15:06:25.194Z,97665.72
2023-03-01T15:08:57.899Z,97662.06
2023-03-01T15:11:31.442Z,97673.19
2023-03-01T15:14:00.912Z,97682.69
2023-03-01T15:16:33.254Z,97673.19
2023-03-01T15:19:05.073Z,97672.19
2023-03-01T15:21:36.090Z,97670.81
2023-03-01T15:24:12.760Z,97677.31
2023-03-01T15:26:45.211Z,97668.81
2023-03-01T15:29:20.259Z,97670.81
2023-03-01T15:32:00.340Z,97665.81
2023-03-01T15:34:31.044Z,97673.13
2023-03-01T15:37:01.615Z,97672.44
2023-03-01T15:39:39.374Z,97681.75
2023-03-01T15:42:12.415Z,97664.28
2023-03-01T15:44:45.932Z,97676.09
2023-03-01T15:47:33.006Z,97674.06
2023-03-01T15:50:03.418Z,97682.38
2023-03-01T15:52:40.217Z,97675.03
2023-03-01T15:55:18.990Z,97682.34
2023-03-01T15:57:47.749Z,97673.50
2023-03-01T16:00:18.500Z,97671.16
2023-03-01T16:02:48.932Z,97674.84
2023-03-01T16:05:25.391Z,97664.16
2023-03-01T16:07:53.877Z,97675.94
2023-03-01T16:10:23.485Z,97672.91
2023-03-01T16:12:53.494Z,97676.91
2023-03-01T16:15:25.028Z,97679.50
2023-03-01T16:17:54.721Z,97672.81
2023-03-01T16:20:28.582Z,97677.41
2023-03-01T16:23:01.047Z,97684.22
2023-03-01T16:25:29.671Z,97689.53
2023-03-01T16:27:59.512Z,97681.84
2023-03-01T16:30:27.881Z,97682.97
2023-03-01T16:32:57.647Z,97682.47
2023-03-01T16:35:26.054Z,97685.59
2023-03-01T16:37:54.906Z,97688.56
2023-03-01T16:40:26.936Z,97686.69
2023-03-01T16:43:00.311Z,97686.84
2023-03-01T16:45:30.460Z,97683.81
2023-03-01T16:48:00.439Z,97683.47
2023-03-01T16:50:28.775Z,97693.69
2023-03-01T16:52:57.082Z,97688.69
2023-03-01T16:55:25.401Z,97695.47
2023-03-01T16:57:53.712Z,97701.91
2023-03-01T17:00:23.549Z,97702.97
2023-03-01T17:02:52.821Z,97700.81
2023-03-01T17:05:24.907Z,97704.22
2023-03-01T17:07:55.749Z,97700.94
2023-03-01T17:10:24.142Z,97705.00
2023-03-01T17:12:53.396Z,97712.34
2023-03-01T17:15:21.696Z,97726.06
2023-03-01T17:17:51.841Z,97726.94
2023-03-01T17:20:21.878Z,97731.34
2023-03-01T17:22:50.193Z,97731.63
2023-03-01T17:25:18.556Z,97739.47
2023-03-01T17:27:46.942Z,97736.41
2023-03-01T17:30:16.832Z,97742.44
2023-03-01T17:32:45.631Z,97739.56
2023-03-01T17:35:14.213Z,97743.34
2023-03-01T17:37:46.532Z,97750.06
2023-03-01T17:40:15.307Z,97755.66
2023-03-01T17:42:43.625Z,97752.63
2023-03-01T17:45:12.791Z,97747.03
2023-03-01T17:47:41.121Z,97752.50
2023-03-01T17:50:11.035Z,97759.22
2023-03-01T17:52:39.290Z,97759.91
2023-03-01T17:55:10.513Z,97760.50
2023-03-01T17:57:40.750Z,97762.84
2023-03-01T18:00:13.168Z,97762.47
2023-03-01T18:02:41.528Z,97776.78
2023-03-01T18:05:10.950Z,97770.25
2023-03-01T18:07:39.257Z,97774.84
2023-03-01T18:10:10.679Z,97771.50
2023-03-01T18:12:39.231Z,97773.47
2023-03-01T18:15:09.337Z,97777.50
2023-03-01T18:17:37.595Z,97779.88
2023-03-01T18:20:07.837Z,97781.00
2023-03-01T18:22:37.807Z,97774.28
2023-03-01T18:25:08.674Z,97786.84
2023-03-01T18:27:37.832Z,97782.78
2023-03-01T18:30:08.738Z,97779.31
2023-03-01T18:32:37.496Z,97786.56
2023-03-01T18:35:07.081Z,97787.69
2023-03-01T18:37:35.350Z,97781.81
2023-03-01T18:40:04.687Z,97791.88
2023-03-01T18:42:34.332Z,97793.94
2023-03-01T18:45:02.563Z,97790.84
2023-03-01T18:47:30.836Z,97795.59
2023-03-01T18:49:59.077Z,97790.03
2023-03-01T18:52:27.366Z,97793.06
2023-03-01T18:54:56.522Z,97788.31
2023-03-01T18:57:24.737Z,97792.63
2023-03-01T18:59:54.380Z,97795.53
2023-03-01T19:02:22.843Z,97791.78
2023-03-01T19:04:51.933Z,97793.13
2023-03-01T19:07:20.528Z,97794.25
2023-03-01T19:09:48.975Z,97794.78
2023-03-01T19:12:17.249Z,97798.53
2023-03-01T19:14:45.519Z,97803.38
2023-03-01T19:17:15.810Z,97803.91
2023-03-01T19:19:44.136Z,97799.88
2023-03-01T19:22:12.440Z,97801.94
2023-03-01T19:24:40.708Z,97804.25
2023-03-01T19:27:09.002Z,97803.53
2023-03-01T19:29:37.262Z,97804.78
2023-03-01T19:32:05.868Z,97802.28
2023-03-01T19:34:37.104Z,97808.50
2023-03-01T19:37:05.569Z,97802.78
2023-03-01T19:39:33.795Z,97800.41
2023-03-01T19:42:02.043Z,97796.72
2023-03-01T19:44:30.381Z,97807.56
2023-03-01T19:46:59.027Z,97801.84
2023-03-01T19:49:29.682Z,97801.00
2023-03-01T19:51:59.333Z,97795.13
2023-03-01T19:54:27.563Z,97796.84
2023-03-01T19:56:55.888Z,97806.53
2023-03-01T19:59:25.464Z,97793.47
2023-03-01T20:01:54.371Z,97796.25
2023-03-01T20:04:22.815Z,97796.63
2023-03-01T20:06:51.233Z,97799.53
2023-03-01T20:09:22.256Z,97812.88
2023-03-01T20:11:51.302Z,97806.75
2023-03-01T20:14:22.257Z,97804.50
2023-03-01T20:16:52.057Z,97807.16
2023-03-01T20:19:20.868Z,97805.59
2023-03-01T20:21:49.133Z,97808.59
2023-03-01T20:24:17.389Z,97812.34
2023-03-01T20:26:47.078Z,97803.97
2023-03-01T20:32:00.933Z,97809.25
2023-03-01T20:34:29.546Z,97804.34
2023-03-01T20:36:57.868Z,97808.94
2023-03-01T20:39:26.171Z,97807.38
2023-03-01T20:41:54.411Z,97806.94
2023-03-01T20:44:22.742Z,97814.38
2023-03-01T20:46:51.130Z,97816.59
2023-03-01T20:49:21.535Z,97806.41
2023-03-01T20:51:49.856Z,97810.25
2023-03-01T20:54:18.162Z,97802.81
2023-03-01T20:56:46.432Z,97810.06
2023-03-01T20:59:15.904Z,97811.25
2023-03-01T21:01:44.162Z,97812.34
2023-03-01T21:04:13.143Z,97807.44
2023-03-01T21:06:42.944Z,97806.03
2023-03-01T21:09:11.901Z,97806.16
2023-03-01T21:11:40.276Z,97803.75
2023-03-01T21:14:08.524Z,97801.50
2023-03-01T21:16:37.276Z,97807.13
2023-03-01T21:19:05.622Z,97802.81
2023-03-01T21:21:33.863Z,97799.72
2023-03-01T21:24:03.705Z,97796.47
2023-03-01T21:26:32.526Z,97798.53
2023-03-01T21:29:02.069Z,97796.25
2023-03-01T21:31:33.941Z,97783.44
2023-03-01T21:34:05.750Z,97788.34
2023-03-01T21:36:35.791Z,97781.78
2023-03-01T21:39:07.406Z,97785.59
2023-03-01T21:41:38.107Z,97781.41
2023-03-01T21:44:07.786Z,97780.84
2023-03-01T21:46:39.402Z,97778.44
2023-03-01T21:49:09.149Z,97771.72
2023-03-01T21:51:38.208Z,97765.03
2023-03-01T21:54:08.583Z,97765.38
2023-03-01T21:56:39.165Z,97760.34
2023-03-01T21:59:16.272Z,97765.88
2023-03-01T22:01:45.034Z,97761.69
2023-03-01T22:04:13.553Z,97757.59
2023-03-01T22:06:44.669Z,97754.38
2023-03-01T22:09:17.686Z,97758.06
2023-03-01T22:11:49.904Z,97756.53
2023-03-01T22:14:20.311Z,97756.66
2023-03-01T22:16:51.595Z,97754.38
2023-03-01T22:19:20.503Z,97747.69
2023-03-01T22:21:50.984Z,97751.41
2023-03-01T22:24:26.956Z,97747.19
2023-03-01T22:26:55.531Z,97746.50
2023-03-01T22:29:27.612Z,97749.34
2023-03-01T22:31:57.711Z,97746.13
2023-03-01T22:34:26.199Z,97746.22
2023-03-01T22:36:54.487Z,97737.03
2023-03-01T22:39:24.128Z,97742.41
2023-03-01T22:41:52.403Z,97742.66
2023-03-01T22:44:23.587Z,97739.41
2023-03-01T22:46:52.535Z,97737.00
2023-03-01T22:49:22.332Z,97741.66
2023-03-01T22:51:51.912Z,97743.69
2023-03-01T22:54:21.044Z,97738.66
2023-03-01T22:56:50.942Z,97732.78
2023-03-01T22:59:23.956Z,97739.25
2023-03-01T23:01:53.133Z,97731.47
2023-03-01T23:04:22.851Z,97726.44
2023-03-01T23:06:53.751Z,97716.16
2023-03-01T23:09:24.814Z,97721.66
2023-03-01T23:11:55.229Z,97719.25
2023-03-01T23:14:23.652Z,97729.16
2023-03-01T23:16:53.985Z,97735.50
2023-03-01T23:19:22.693Z,97726.75
2023-03-01T23:21:51.122Z,97730.47
2023-03-01T23:24:22.300Z,97729.84
2023-03-01T23:26:53.422Z,97731.78
2023-03-01T23:29:23.844Z,97722.31
2023-03-01T23:31:52.352Z,97719.09
2023-03-01T23:34:21.076Z,97714.06
2023-03-01T23:36:49.363Z,97709.03
2023-03-01T23:39:17.670Z,97710.06
2023-03-01T23:41:46.052Z,97714.63
2023-03-01T23:44:17.799Z,97708.63
2023-03-01T23:46:49.219Z,97711.59
2023-03-01T23:49:21.847Z,97718.69
2023-03-01T23:51:50.547Z,97723.31
2023-03-01T23:54:22.018Z,97721.66
2023-03-01T23:56:50.340Z,97714.69
2023-03-01T23:59:21.915Z,97717.03
